createdAt,value
2023-02-24T00:00:33.126Z,27.13
2023-02-24T00:05:55.009Z,27.35
2023-02-24T00:11:18.553Z,25.73
2023-02-24T00:16:40.706Z,25.50
2023-02-24T00:22:04.761Z,25.90
2023-02-24T00:27:26.700Z,26.50
2023-02-24T00:32:48.654Z,25.70
2023-02-24T00:38:10.642Z,27.20
2023-02-24T00:43:32.497Z,27.70
2023-02-24T00:48:54.627Z,27.30
2023-02-24T00:54:17.451Z,26.98
2023-02-24T00:59:39.930Z,27.67
2023-02-24T01:05:02.451Z,26.40
2023-02-24T01:10:24.283Z,27.98
2023-02-24T01:15:46.148Z,28.67
2023-02-24T01:21:08.012Z,27.88
2023-02-24T01:26:30.007Z,29.35
2023-02-24T01:31:52.609Z,28.80
2023-02-24T01:37:14.618Z,28.50
2023-02-24T01:42:36.517Z,28.55
2023-02-24T01:48:02.944Z,28.80
2023-02-24T01:53:24.979Z,28.00
2023-02-24T01:58:47.142Z,29.38
2023-02-24T02:04:29.127Z,29.10
2023-02-24T02:09:52.215Z,28.00
2023-02-24T02:15:18.165Z,28.73
2023-02-24T02:21:01.793Z,29.20
2023-02-24T02:26:45.127Z,30.13
2023-02-24T02:32:25.874Z,28.92
2023-02-24T02:37:54.963Z,29.90
2023-02-24T02:43:35.187Z,28.63
2023-02-24T02:48:59.287Z,32.08
2023-02-24T02:54:40.580Z,29.13
2023-02-24T03:00:27.870Z,28.77
2023-02-24T03:05:55.655Z,28.67
2023-02-24T03:11:20.437Z,29.55
2023-02-24T03:16:45.854Z,29.33
2023-02-24T03:22:13.093Z,30.35
2023-02-24T03:27:59.581Z,30.35
2023-02-24T03:33:35.660Z,31.10
2023-02-24T03:38:58.647Z,31.40
2023-02-24T03:44:20.580Z,30.70
2023-02-24T03:49:42.450Z,31.38
2023-02-24T03:55:45.633Z,31.73
2023-02-24T04:01:22.274Z,31.60
2023-02-24T04:06:56.105Z,31.83
2023-02-24T04:12:46.004Z,31.02
2023-02-24T04:18:21.625Z,30.77
2023-02-24T04:23:45.025Z,32.73
2023-02-24T04:29:09.180Z,32.22
2023-02-24T04:34:31.222Z,34.50
2023-02-24T04:39:53.081Z,32.10
2023-02-24T04:45:14.977Z,34.70
2023-02-24T04:50:37.647Z,33.22
2023-02-24T04:56:03.634Z,34.10
2023-02-24T05:01:25.518Z,34.22
2023-02-24T05:06:47.402Z,35.78
2023-02-24T05:12:09.239Z,34.33
2023-02-24T05:17:31.149Z,36.38
2023-02-24T05:22:53.035Z,37.35
2023-02-24T05:28:15.022Z,36.53
2023-02-24T05:33:38.326Z,36.25
2023-02-24T05:39:00.834Z,35.70
2023-02-24T05:44:24.267Z,37.33
2023-02-24T05:49:46.113Z,38.60
2023-02-24T05:55:08.322Z,38.92
2023-02-24T06:00:30.182Z,36.38
2023-02-24T06:05:55.085Z,36.90
2023-02-24T06:11:19.635Z,38.92
2023-02-24T06:16:42.662Z,39.63
2023-02-24T06:22:04.593Z,38.30
2023-02-24T06:27:26.605Z,38.53
2023-02-24T06:32:49.342Z,38.15
2023-02-24T06:38:11.310Z,36.65
2023-02-24T06:43:33.481Z,35.55
2023-02-24T06:48:55.681Z,35.92
2023-02-24T06:54:17.537Z,34.53
2023-02-24T06:59:39.365Z,34.28
2023-02-24T07:05:01.233Z,34.17
2023-02-24T07:10:23.075Z,30.80
2023-02-24T07:15:44.919Z,33.60
2023-02-24T07:21:07.655Z,32.03
2023-02-24T07:26:29.515Z,31.40
2023-02-24T07:31:51.571Z,30.95
2023-02-24T07:37:13.668Z,32.08
2023-02-24T07:42:35.590Z,31.42
2023-02-24T07:47:57.458Z,30.48
2023-02-24T07:53:19.319Z,29.50
2023-02-24T07:58:41.386Z,28.98
2023-02-24T08:04:03.332Z,26.58
2023-02-24T08:09:27.966Z,25.42
2023-02-24T08:14:52.615Z,23.80
2023-02-24T08:20:15.568Z,22.33
2023-02-24T08:25:37.519Z,23.73
2023-02-24T08:31:02.782Z,21.73
2023-02-24T08:36:24.833Z,22.63
2023-02-24T08:41:46.677Z,23.58
2023-02-24T08:47:08.537Z,24.73
2023-02-24T08:52:32.261Z,25.73
2023-02-24T08:57:54.341Z,25.70
2023-02-24T09:03:18.275Z,26.60
2023-02-24T09:08:40.690Z,22.92
2023-02-24T09:14:02.638Z,21.48
2023-02-24T09:19:24.561Z,22.52
2023-02-24T09:24:46.471Z,22.85
2023-02-24T09:30:13.022Z,23.00
2023-02-24T09:40:58.561Z,22.65
2023-02-24T09:46:21.687Z,21.98
2023-02-24T09:51:44.760Z,24.05
2023-02-24T09:57:15.846Z,21.73
2023-02-24T10:02:42.012Z,20.60
2023-02-24T10:08:15.729Z,22.52
2023-02-24T10:13:54.331Z,19.15
2023-02-24T10:19:32.338Z,18.40
2023-02-24T10:25:21.259Z,17.50
2023-02-24T10:31:03.674Z,17.77
2023-02-24T10:36:26.496Z,16.30
2023-02-24T10:41:51.812Z,13.30
2023-02-24T10:47:13.795Z,12.35
2023-02-24T10:52:37.338Z,12.55
2023-02-24T10:58:04.347Z,11.88
2023-02-24T11:03:32.658Z,12.05
2023-02-24T11:08:58.634Z,12.60
2023-02-24T11:14:20.900Z,11.07
2023-02-24T11:19:54.575Z,10.57
2023-02-24T11:25:27.007Z,8.13
2023-02-24T11:31:10.441Z,8.75
2023-02-24T11:36:40.770Z,7.22
2023-02-24T11:42:08.543Z,7.60
2023-02-24T11:47:45.244Z,7.07
2023-02-24T11:53:22.815Z,8.02
2023-02-24T11:59:04.323Z,7.22
2023-02-24T12:04:35.265Z,6.97
2023-02-24T12:10:17.831Z,8.18
2023-02-24T12:16:00.926Z,8.98
2023-02-24T12:21:25.938Z,9.07
2023-02-24T12:27:18.582Z,9.68
2023-02-24T12:32:52.964Z,9.88
2023-02-24T12:38:47.822Z,9.85
2023-02-24T12:44:23.581Z,10.45
2023-02-24T12:50:07.034Z,10.17
2023-02-24T12:55:51.686Z,10.60
2023-02-24T13:01:24.554Z,10.27
2023-02-24T13:06:58.561Z,8.43
2023-02-24T13:12:31.206Z,9.40
2023-02-24T13:17:57.690Z,8.02
2023-02-24T13:23:22.062Z,8.00
2023-02-24T13:28:44.140Z,7.90
2023-02-24T13:34:28.824Z,8.82
2023-02-24T13:39:50.691Z,8.23
2023-02-24T13:45:20.213Z,8.90
2023-02-24T13:51:03.878Z,8.93
2023-02-24T13:56:44.420Z,8.98
2023-02-24T14:02:14.980Z,8.93
2023-02-24T14:07:39.389Z,9.18
2023-02-24T14:13:14.066Z,9.52
2023-02-24T14:18:36.038Z,10.25
2023-02-24T14:24:10.801Z,11.10
2023-02-24T14:29:43.617Z,11.07
2023-02-24T14:35:06.580Z,10.93
2023-02-24T14:40:29.182Z,11.55
2023-02-24T14:45:53.159Z,13.00
2023-02-24T14:51:31.050Z,12.13
2023-02-24T14:56:53.093Z,13.43
2023-02-24T15:02:20.474Z,11.48
2023-02-24T15:07:44.777Z,11.05
2023-02-24T15:13:23.309Z,12.63
2023-02-24T15:18:50.230Z,12.38
2023-02-24T15:24:34.113Z,12.32
2023-02-24T15:30:24.873Z,12.88
2023-02-24T15:35:58.827Z,13.20
2023-02-24T15:41:20.711Z,13.40
2023-02-24T15:46:42.863Z,13.70
2023-02-24T15:52:09.939Z,12.27
2023-02-24T15:57:32.794Z,12.10
2023-02-24T16:02:54.687Z,11.70
2023-02-24T16:08:19.365Z,11.20
2023-02-24T16:13:47.337Z,11.23
2023-02-24T16:19:14.142Z,11.52
2023-02-24T16:24:35.982Z,11.13
2023-02-24T16:29:58.566Z,9.10
2023-02-24T16:35:20.396Z,8.30
2023-02-24T16:40:45.428Z,8.70
2023-02-24T16:46:13.894Z,7.40
2023-02-24T16:51:36.032Z,7.50
2023-02-24T16:56:58.151Z,7.53
2023-02-24T17:02:24.706Z,7.13
2023-02-24T17:13:17.868Z,7.50
2023-02-24T17:18:39.804Z,6.47
2023-02-24T17:24:01.689Z,7.63
2023-02-24T17:29:23.521Z,6.65
2023-02-24T17:34:45.342Z,6.50
2023-02-24T17:40:08.231Z,6.47
2023-02-24T17:45:30.071Z,5.43
2023-02-24T17:50:51.980Z,5.38
2023-02-24T17:56:13.823Z,5.78
2023-02-24T18:01:35.662Z,6.93
2023-02-24T18:06:57.487Z,6.28
2023-02-24T18:12:20.197Z,6.60
2023-02-24T18:17:42.083Z,6.45
2023-02-24T18:23:03.952Z,12.32
2023-02-24T18:28:25.808Z,5.88
2023-02-24T18:33:48.335Z,6.25
2023-02-24T18:39:10.413Z,6.32
2023-02-24T18:44:32.379Z,6.38
2023-02-24T18:49:54.332Z,6.53
2023-02-24T18:55:16.362Z,6.40
2023-02-24T19:00:38.601Z,6.70
2023-02-24T19:06:00.541Z,6.07
2023-02-24T19:11:22.409Z,6.82
2023-02-24T19:16:45.300Z,7.00
2023-02-24T19:22:07.220Z,7.93
2023-02-24T19:27:29.109Z,6.43
2023-02-24T19:32:51.128Z,7.70
2023-02-24T19:38:18.329Z,7.40
2023-02-24T19:43:40.254Z,8.65
2023-02-24T19:49:03.164Z,9.55
2023-02-24T19:54:25.300Z,8.18
2023-02-24T19:59:49.928Z,9.20
2023-02-24T20:05:11.866Z,10.27
2023-02-24T20:10:33.713Z,10.30
2023-02-24T20:16:13.180Z,11.23
2023-02-24T20:21:36.080Z,10.93
2023-02-24T20:26:57.917Z,12.98
2023-02-24T20:32:19.812Z,11.65
2023-02-24T20:37:41.720Z,13.15
2023-02-24T20:43:05.731Z,14.27
2023-02-24T20:48:27.551Z,14.55
2023-02-24T20:53:57.227Z,15.52
2023-02-24T20:59:21.156Z,16.83
2023-02-24T21:04:42.991Z,15.38
2023-02-24T21:10:05.414Z,15.98
2023-02-24T21:15:27.387Z,16.70
2023-02-24T21:20:53.119Z,16.20
2023-02-24T21:26:15.228Z,15.33
2023-02-24T21:31:37.122Z,17.17
2023-02-24T21:36:59.080Z,16.00
2023-02-24T21:42:20.989Z,17.40
2023-02-24T21:47:43.232Z,16.58
2023-02-24T21:53:05.138Z,15.45
2023-02-24T21:58:26.971Z,16.42
2023-02-24T22:03:48.988Z,15.07
2023-02-24T22:09:12.055Z,14.35
2023-02-24T22:14:33.888Z,15.40
2023-02-24T22:19:55.734Z,14.32
2023-02-24T22:25:17.629Z,14.57
2023-02-24T22:30:39.478Z,14.82
2023-02-24T22:36:06.820Z,17.52
2023-02-24T22:41:32.195Z,18.52
2023-02-24T22:46:54.106Z,20.35
2023-02-24T22:52:15.943Z,21.05
2023-02-24T22:57:37.797Z,19.80
2023-02-24T23:02:59.665Z,20.10
2023-02-24T23:08:21.958Z,18.63
2023-02-24T23:13:45.687Z,18.10
2023-02-24T23:19:13.523Z,18.48
2023-02-24T23:24:35.395Z,16.80
2023-02-24T23:29:57.234Z,16.40
2023-02-24T23:35:19.057Z,16.08
2023-02-24T23:40:49.910Z,16.30
2023-02-24T23:46:13.221Z,16.52
2023-02-24T23:51:47.541Z,15.18
2023-02-24T23:57:10.185Z,14.80
